sensor_id;sensor_type;location;lat;lon;timestamp;P1;durP1;ratioP1;P2;durP2;ratioP2
70545;SDS011;58098;51.680;5.134;2023-06-14T00:00:03;8.30;;;4.30;;
70545;SDS011;58098;51.680;5.134;2023-06-14T00:02:30;6.00;;;3.97;;
70545;SDS011;58098;51.680;5.134;2023-06-14T00:04:56;7.20;;;4.40;;
70545;SDS011;58098;51.680;5.134;2023-06-14T00:07:22;6.87;;;4.13;;
70545;SDS011;58098;51.680;5.134;2023-06-14T00:10:02;11.65;;;3.92;;
70545;SDS011;58098;51.680;5.134;2023-06-14T00:12:29;6.95;;;4.13;;
70545;SDS011;58098;51.680;5.134;2023-06-14T00:14:54;8.17;;;4.23;;
70545;SDS011;58098;51.680;5.134;2023-06-14T00:17:20;6.43;;;3.83;;
70545;SDS011;58098;51.680;5.134;2023-06-14T00:19:45;7.60;;;4.30;;
70545;SDS011;58098;51.680;5.134;2023-06-14T00:22:11;6.90;;;3.90;;
70545;SDS011;58098;51.680;5.134;2023-06-14T00:24:37;7.03;;;3.97;;
70545;SDS011;58098;51.680;5.134;2023-06-14T00:27:02;6.93;;;4.30;;
70545;SDS011;58098;51.680;5.134;2023-06-14T00:29:28;8.70;;;4.30;;
70545;SDS011;58098;51.680;5.134;2023-06-14T00:31:53;9.17;;;4.43;;
70545;SDS011;58098;51.680;5.134;2023-06-14T00:34:18;8.57;;;4.03;;
70545;SDS011;58098;51.680;5.134;2023-06-14T00:36:44;7.03;;;4.63;;
70545;SDS011;58098;51.680;5.134;2023-06-14T00:39:09;6.22;;;4.45;;
70545;SDS011;58098;51.680;5.134;2023-06-14T00:41:34;9.37;;;3.93;;
70545;SDS011;58098;51.680;5.134;2023-06-14T00:44:00;8.40;;;4.40;;
70545;SDS011;58098;51.680;5.134;2023-06-14T00:46:25;8.73;;;5.33;;
70545;SDS011;58098;51.680;5.134;2023-06-14T00:48:50;4.63;;;3.93;;
70545;SDS011;58098;51.680;5.134;2023-06-14T00:51:16;8.57;;;4.10;;
70545;SDS011;58098;51.680;5.134;2023-06-14T00:53:42;6.77;;;4.07;;
70545;SDS011;58098;51.680;5.134;2023-06-14T00:56:11;8.35;;;4.40;;
70545;SDS011;58098;51.680;5.134;2023-06-14T00:58:38;5.22;;;4.03;;
70545;SDS011;58098;51.680;5.134;2023-06-14T01:01:03;8.13;;;3.93;;
70545;SDS011;58098;51.680;5.134;2023-06-14T01:03:29;6.83;;;4.23;;
70545;SDS011;58098;51.680;5.134;2023-06-14T01:05:58;10.23;;;4.05;;
70545;SDS011;58098;51.680;5.134;2023-06-14T01:11:18;4.93;;;4.18;;
70545;SDS011;58098;51.680;5.134;2023-06-14T01:13:53;7.13;;;3.95;;
70545;SDS011;58098;51.680;5.134;2023-06-14T01:16:21;12.40;;;4.32;;
70545;SDS011;58098;51.680;5.134;2023-06-14T01:18:47;8.13;;;4.27;;
70545;SDS011;58098;51.680;5.134;2023-06-14T01:21:21;7.38;;;4.20;;
70545;SDS011;58098;51.680;5.134;2023-06-14T01:23:47;10.10;;;3.90;;
70545;SDS011;58098;51.680;5.134;2023-06-14T01:26:17;6.68;;;3.95;;
70545;SDS011;58098;51.680;5.134;2023-06-14T01:28:43;8.53;;;3.83;;
70545;SDS011;58098;51.680;5.134;2023-06-14T01:31:16;6.75;;;3.72;;
70545;SDS011;58098;51.680;5.134;2023-06-14T01:33:44;9.38;;;3.80;;
70545;SDS011;58098;51.680;5.134;2023-06-14T01:36:11;9.13;;;3.72;;
70545;SDS011;58098;51.680;5.134;2023-06-14T01:38:37;8.13;;;3.70;;
70545;SDS011;58098;51.680;5.134;2023-06-14T01:41:02;9.63;;;4.00;;
70545;SDS011;58098;51.680;5.134;2023-06-14T01:43:30;6.55;;;3.95;;
70545;SDS011;58098;51.680;5.134;2023-06-14T01:45:56;9.53;;;3.87;;
70545;SDS011;58098;51.680;5.134;2023-06-14T01:48:22;10.48;;;4.00;;
70545;SDS011;58098;51.680;5.134;2023-06-14T01:50:51;11.45;;;4.90;;
70545;SDS011;58098;51.680;5.134;2023-06-14T01:53:17;6.35;;;3.67;;
70545;SDS011;58098;51.680;5.134;2023-06-14T01:55:43;6.37;;;4.17;;
70545;SDS011;58098;51.680;5.134;2023-06-14T01:58:09;8.83;;;3.77;;
70545;SDS011;58098;51.680;5.134;2023-06-14T02:00:35;12.30;;;4.05;;
70545;SDS011;58098;51.680;5.134;2023-06-14T02:03:00;8.27;;;3.85;;
70545;SDS011;58098;51.680;5.134;2023-06-14T02:05:29;7.47;;;3.95;;
70545;SDS011;58098;51.680;5.134;2023-06-14T02:07:55;8.73;;;4.03;;
70545;SDS011;58098;51.680;5.134;2023-06-14T02:10:20;7.22;;;4.00;;
70545;SDS011;58098;51.680;5.134;2023-06-14T02:12:45;5.07;;;3.83;;
70545;SDS011;58098;51.680;5.134;2023-06-14T02:15:11;11.10;;;3.93;;
70545;SDS011;58098;51.680;5.134;2023-06-14T02:17:42;10.07;;;3.78;;
70545;SDS011;58098;51.680;5.134;2023-06-14T02:20:08;6.97;;;3.92;;
70545;SDS011;58098;51.680;5.134;2023-06-14T02:22:34;9.37;;;3.80;;
70545;SDS011;58098;51.680;5.134;2023-06-14T02:25:00;7.65;;;4.00;;
70545;SDS011;58098;51.680;5.134;2023-06-14T02:27:25;7.00;;;3.80;;
70545;SDS011;58098;51.680;5.134;2023-06-14T02:29:50;8.20;;;3.70;;
70545;SDS011;58098;51.680;5.134;2023-06-14T02:32:16;6.03;;;4.20;;
70545;SDS011;58098;51.680;5.134;2023-06-14T02:34:41;9.20;;;4.10;;
70545;SDS011;58098;51.680;5.134;2023-06-14T02:37:06;8.23;;;3.65;;
70545;SDS011;58098;51.680;5.134;2023-06-14T02:39:32;7.70;;;3.40;;
70545;SDS011;58098;51.680;5.134;2023-06-14T02:41:57;8.03;;;3.60;;
70545;SDS011;58098;51.680;5.134;2023-06-14T02:44:25;9.37;;;4.07;;
70545;SDS011;58098;51.680;5.134;2023-06-14T02:46:52;6.15;;;3.88;;
70545;SDS011;58098;51.680;5.134;2023-06-14T02:49:18;7.87;;;3.83;;
70545;SDS011;58098;51.680;5.134;2023-06-14T02:51:44;8.98;;;4.25;;
70545;SDS011;58098;51.680;5.134;2023-06-14T02:54:09;6.73;;;3.57;;
70545;SDS011;58098;51.680;5.134;2023-06-14T02:56:35;9.27;;;4.57;;
70545;SDS011;58098;51.680;5.134;2023-06-14T02:59:01;8.27;;;3.55;;
70545;SDS011;58098;51.680;5.134;2023-06-14T03:01:27;11.27;;;3.65;;
70545;SDS011;58098;51.680;5.134;2023-06-14T03:03:58;8.70;;;3.97;;
70545;SDS011;58098;51.680;5.134;2023-06-14T03:06:24;6.18;;;3.88;;
70545;SDS011;58098;51.680;5.134;2023-06-14T03:08:50;5.07;;;3.80;;
70545;SDS011;58098;51.680;5.134;2023-06-14T03:11:15;6.88;;;3.72;;
70545;SDS011;58098;51.680;5.134;2023-06-14T03:13:42;7.32;;;3.60;;
70545;SDS011;58098;51.680;5.134;2023-06-14T03:16:08;7.33;;;3.77;;
70545;SDS011;58098;51.680;5.134;2023-06-14T03:18:34;4.32;;;3.63;;
70545;SDS011;58098;51.680;5.134;2023-06-14T03:21:01;11.83;;;4.20;;
70545;SDS011;58098;51.680;5.134;2023-06-14T03:23:26;7.13;;;3.72;;
70545;SDS011;58098;51.680;5.134;2023-06-14T03:25:52;10.80;;;4.50;;
70545;SDS011;58098;51.680;5.134;2023-06-14T03:28:17;7.77;;;3.80;;
70545;SDS011;58098;51.680;5.134;2023-06-14T03:30:43;9.30;;;3.67;;
70545;SDS011;58098;51.680;5.134;2023-06-14T03:33:08;10.07;;;3.53;;
70545;SDS011;58098;51.680;5.134;2023-06-14T03:35:34;10.93;;;3.83;;
70545;SDS011;58098;51.680;5.134;2023-06-14T03:38:00;7.57;;;4.13;;
70545;SDS011;58098;51.680;5.134;2023-06-14T03:40:25;7.83;;;4.03;;
70545;SDS011;58098;51.680;5.134;2023-06-14T03:42:53;9.93;;;4.13;;
70545;SDS011;58098;51.680;5.134;2023-06-14T03:45:19;10.10;;;4.20;;
70545;SDS011;58098;51.680;5.134;2023-06-14T03:47:44;9.87;;;3.50;;
70545;SDS011;58098;51.680;5.134;2023-06-14T03:50:09;8.17;;;3.80;;
70545;SDS011;58098;51.680;5.134;2023-06-14T03:52:35;6.85;;;3.83;;
70545;SDS011;58098;51.680;5.134;2023-06-14T03:55:01;12.77;;;3.58;;
70545;SDS011;58098;51.680;5.134;2023-06-14T03:57:27;7.45;;;4.00;;
70545;SDS011;58098;51.680;5.134;2023-06-14T03:59:54;10.00;;;3.83;;
70545;SDS011;58098;51.680;5.134;2023-06-14T04:02:19;6.73;;;3.83;;
70545;SDS011;58098;51.680;5.134;2023-06-14T04:04:45;7.40;;;3.67;;
70545;SDS011;58098;51.680;5.134;2023-06-14T04:07:11;8.67;;;3.73;;
70545;SDS011;58098;51.680;5.134;2023-06-14T04:09:37;8.23;;;3.60;;
70545;SDS011;58098;51.680;5.134;2023-06-14T04:12:03;5.53;;;3.60;;
70545;SDS011;58098;51.680;5.134;2023-06-14T04:14:29;4.50;;;3.50;;
70545;SDS011;58098;51.680;5.134;2023-06-14T04:16:55;7.07;;;4.03;;
70545;SDS011;58098;51.680;5.134;2023-06-14T04:19:21;11.93;;;4.03;;
70545;SDS011;58098;51.680;5.134;2023-06-14T04:21:46;12.70;;;3.97;;
70545;SDS011;58098;51.680;5.134;2023-06-14T04:24:11;9.87;;;3.87;;
70545;SDS011;58098;51.680;5.134;2023-06-14T04:26:37;8.30;;;3.97;;
70545;SDS011;58098;51.680;5.134;2023-06-14T04:29:04;9.85;;;3.42;;
70545;SDS011;58098;51.680;5.134;2023-06-14T04:31:30;6.50;;;3.85;;
70545;SDS011;58098;51.680;5.134;2023-06-14T04:33:58;6.55;;;4.13;;
70545;SDS011;58098;51.680;5.134;2023-06-14T04:36:24;10.03;;;3.53;;
70545;SDS011;58098;51.680;5.134;2023-06-14T04:38:51;5.80;;;3.63;;
70545;SDS011;58098;51.680;5.134;2023-06-14T04:41:20;7.25;;;3.60;;
70545;SDS011;58098;51.680;5.134;2023-06-14T04:43:47;8.30;;;4.10;;
70545;SDS011;58098;51.680;5.134;2023-06-14T04:46:14;7.30;;;3.63;;
70545;SDS011;58098;51.680;5.134;2023-06-14T04:48:40;8.00;;;4.03;;
70545;SDS011;58098;51.680;5.134;2023-06-14T04:51:08;7.97;;;3.72;;
70545;SDS011;58098;51.680;5.134;2023-06-14T04:53:34;8.45;;;3.78;;
70545;SDS011;58098;51.680;5.134;2023-06-14T04:55:59;4.70;;;3.47;;
70545;SDS011;58098;51.680;5.134;2023-06-14T04:58:26;11.10;;;4.00;;
70545;SDS011;58098;51.680;5.134;2023-06-14T05:00:52;10.32;;;3.47;;
70545;SDS011;58098;51.680;5.134;2023-06-14T05:03:18;9.60;;;3.87;;
70545;SDS011;58098;51.680;5.134;2023-06-14T05:05:45;7.20;;;3.83;;
70545;SDS011;58098;51.680;5.134;2023-06-14T05:08:11;8.60;;;3.47;;
70545;SDS011;58098;51.680;5.134;2023-06-14T05:10:36;9.17;;;3.77;;
70545;SDS011;58098;51.680;5.134;2023-06-14T05:13:02;8.25;;;3.83;;
70545;SDS011;58098;51.680;5.134;2023-06-14T05:15:27;12.70;;;3.70;;
70545;SDS011;58098;51.680;5.134;2023-06-14T05:17:54;9.65;;;4.00;;
70545;SDS011;58098;51.680;5.134;2023-06-14T05:20:24;7.05;;;4.10;;
70545;SDS011;58098;51.680;5.134;2023-06-14T05:22:51;8.18;;;3.90;;
70545;SDS011;58098;51.680;5.134;2023-06-14T05:25:18;6.35;;;4.28;;
70545;SDS011;58098;51.680;5.134;2023-06-14T05:27:44;5.70;;;3.70;;
70545;SDS011;58098;51.680;5.134;2023-06-14T05:30:09;10.73;;;3.90;;
70545;SDS011;58098;51.680;5.134;2023-06-14T05:32:35;8.07;;;3.63;;
70545;SDS011;58098;51.680;5.134;2023-06-14T05:35:01;9.20;;;4.18;;
70545;SDS011;58098;51.680;5.134;2023-06-14T05:37:26;7.13;;;3.33;;
70545;SDS011;58098;51.680;5.134;2023-06-14T05:39:51;7.10;;;3.73;;
70545;SDS011;58098;51.680;5.134;2023-06-14T05:42:17;6.20;;;3.53;;
70545;SDS011;58098;51.680;5.134;2023-06-14T05:44:42;8.73;;;4.10;;
70545;SDS011;58098;51.680;5.134;2023-06-14T05:47:07;12.07;;;3.93;;
70545;SDS011;58098;51.680;5.134;2023-06-14T05:49:32;6.07;;;3.70;;
70545;SDS011;58098;51.680;5.134;2023-06-14T05:51:58;7.93;;;3.80;;
70545;SDS011;58098;51.680;5.134;2023-06-14T05:54:23;9.97;;;4.00;;
70545;SDS011;58098;51.680;5.134;2023-06-14T05:56:48;10.70;;;4.17;;
70545;SDS011;58098;51.680;5.134;2023-06-14T05:59:14;9.37;;;4.23;;
70545;SDS011;58098;51.680;5.134;2023-06-14T06:01:39;14.73;;;4.47;;
70545;SDS011;58098;51.680;5.134;2023-06-14T06:04:05;9.27;;;4.22;;
70545;SDS011;58098;51.680;5.134;2023-06-14T06:06:31;9.40;;;4.50;;
70545;SDS011;58098;51.680;5.134;2023-06-14T06:08:57;9.13;;;4.10;;
70545;SDS011;58098;51.680;5.134;2023-06-14T06:11:22;10.10;;;4.10;;
70545;SDS011;58098;51.680;5.134;2023-06-14T06:13:48;7.67;;;4.17;;
70545;SDS011;58098;51.680;5.134;2023-06-14T06:16:13;12.93;;;4.10;;
70545;SDS011;58098;51.680;5.134;2023-06-14T06:18:38;9.30;;;4.20;;
70545;SDS011;58098;51.680;5.134;2023-06-14T06:21:04;10.60;;;4.03;;
70545;SDS011;58098;51.680;5.134;2023-06-14T06:23:29;9.68;;;4.45;;
70545;SDS011;58098;51.680;5.134;2023-06-14T06:25:55;12.07;;;4.03;;
70545;SDS011;58098;51.680;5.134;2023-06-14T06:28:20;11.33;;;4.30;;
70545;SDS011;58098;51.680;5.134;2023-06-14T06:30:45;8.43;;;4.33;;
70545;SDS011;58098;51.680;5.134;2023-06-14T06:33:11;12.13;;;4.40;;
70545;SDS011;58098;51.680;5.134;2023-06-14T06:35:36;11.73;;;4.22;;
70545;SDS011;58098;51.680;5.134;2023-06-14T06:38:02;10.47;;;4.60;;
70545;SDS011;58098;51.680;5.134;2023-06-14T06:40:27;13.83;;;4.73;;
70545;SDS011;58098;51.680;5.134;2023-06-14T06:42:53;8.57;;;4.20;;
70545;SDS011;58098;51.680;5.134;2023-06-14T06:45:19;9.17;;;4.27;;
70545;SDS011;58098;51.680;5.134;2023-06-14T06:47:44;7.72;;;3.90;;
70545;SDS011;58098;51.680;5.134;2023-06-14T06:50:10;8.43;;;4.27;;
70545;SDS011;58098;51.680;5.134;2023-06-14T06:52:35;11.60;;;4.43;;
70545;SDS011;58098;51.680;5.134;2023-06-14T06:55:01;9.10;;;4.20;;
70545;SDS011;58098;51.680;5.134;2023-06-14T06:57:27;9.32;;;4.18;;
70545;SDS011;58098;51.680;5.134;2023-06-14T06:59:54;10.75;;;4.03;;
70545;SDS011;58098;51.680;5.134;2023-06-14T07:02:19;7.47;;;4.00;;
70545;SDS011;58098;51.680;5.134;2023-06-14T07:04:45;5.63;;;4.20;;
70545;SDS011;58098;51.680;5.134;2023-06-14T07:07:10;10.97;;;3.90;;
70545;SDS011;58098;51.680;5.134;2023-06-14T07:09:35;6.50;;;4.00;;
70545;SDS011;58098;51.680;5.134;2023-06-14T07:12:01;10.43;;;4.17;;
70545;SDS011;58098;51.680;5.134;2023-06-14T07:14:26;8.43;;;4.37;;
70545;SDS011;58098;51.680;5.134;2023-06-14T07:16:52;10.83;;;4.30;;
70545;SDS011;58098;51.680;5.134;2023-06-14T07:19:17;7.00;;;3.67;;
70545;SDS011;58098;51.680;5.134;2023-06-14T07:21:43;9.33;;;3.87;;
70545;SDS011;58098;51.680;5.134;2023-06-14T07:24:08;12.00;;;4.00;;
70545;SDS011;58098;51.680;5.134;2023-06-14T07:26:33;12.43;;;4.30;;
70545;SDS011;58098;51.680;5.134;2023-06-14T07:29:00;7.38;;;4.38;;
70545;SDS011;58098;51.680;5.134;2023-06-14T07:31:25;7.10;;;4.10;;
70545;SDS011;58098;51.680;5.134;2023-06-14T07:33:51;7.47;;;3.70;;
70545;SDS011;58098;51.680;5.134;2023-06-14T07:36:16;9.33;;;4.30;;
70545;SDS011;58098;51.680;5.134;2023-06-14T07:38:42;6.68;;;3.92;;
70545;SDS011;58098;51.680;5.134;2023-06-14T07:41:08;6.57;;;4.10;;
70545;SDS011;58098;51.680;5.134;2023-06-14T07:43:33;6.87;;;3.80;;
70545;SDS011;58098;51.680;5.134;2023-06-14T07:45:59;8.20;;;4.03;;
70545;SDS011;58098;51.680;5.134;2023-06-14T07:48:24;10.02;;;4.00;;
70545;SDS011;58098;51.680;5.134;2023-06-14T07:50:50;7.43;;;4.07;;
70545;SDS011;58098;51.680;5.134;2023-06-14T07:53:15;6.45;;;4.20;;
70545;SDS011;58098;51.680;5.134;2023-06-14T07:55:41;9.17;;;3.77;;
70545;SDS011;58098;51.680;5.134;2023-06-14T07:58:07;7.93;;;3.70;;
70545;SDS011;58098;51.680;5.134;2023-06-14T08:00:32;4.50;;;3.85;;
70545;SDS011;58098;51.680;5.134;2023-06-14T08:02:58;10.17;;;3.97;;
70545;SDS011;58098;51.680;5.134;2023-06-14T08:05:26;11.25;;;3.85;;
70545;SDS011;58098;51.680;5.134;2023-06-14T08:07:52;8.10;;;3.90;;
70545;SDS011;58098;51.680;5.134;2023-06-14T08:10:18;7.90;;;3.85;;
70545;SDS011;58098;51.680;5.134;2023-06-14T08:12:44;7.60;;;3.60;;
70545;SDS011;58098;51.680;5.134;2023-06-14T08:15:09;12.33;;;3.60;;
70545;SDS011;58098;51.680;5.134;2023-06-14T08:17:35;8.80;;;3.90;;
70545;SDS011;58098;51.680;5.134;2023-06-14T08:20:01;7.15;;;4.00;;
70545;SDS011;58098;51.680;5.134;2023-06-14T08:22:26;6.47;;;3.80;;
70545;SDS011;58098;51.680;5.134;2023-06-14T08:24:53;10.68;;;3.72;;
70545;SDS011;58098;51.680;5.134;2023-06-14T08:27:19;10.40;;;3.83;;
70545;SDS011;58098;51.680;5.134;2023-06-14T08:29:45;8.65;;;4.10;;
70545;SDS011;58098;51.680;5.134;2023-06-14T08:32:10;9.50;;;3.90;;
70545;SDS011;58098;51.680;5.134;2023-06-14T08:34:36;16.13;;;3.70;;
70545;SDS011;58098;51.680;5.134;2023-06-14T08:37:01;9.90;;;3.70;;
70545;SDS011;58098;51.680;5.134;2023-06-14T08:39:27;7.40;;;3.57;;
70545;SDS011;58098;51.680;5.134;2023-06-14T08:41:52;5.47;;;3.57;;
70545;SDS011;58098;51.680;5.134;2023-06-14T08:44:19;5.80;;;3.25;;
70545;SDS011;58098;51.680;5.134;2023-06-14T08:46:45;8.83;;;3.47;;
70545;SDS011;58098;51.680;5.134;2023-06-14T08:49:13;7.00;;;3.40;;
70545;SDS011;58098;51.680;5.134;2023-06-14T08:51:41;6.22;;;3.15;;
70545;SDS011;58098;51.680;5.134;2023-06-14T08:54:08;8.48;;;3.45;;
70545;SDS011;58098;51.680;5.134;2023-06-14T08:56:36;5.35;;;3.42;;
70545;SDS011;58098;51.680;5.134;2023-06-14T08:59:03;8.50;;;3.50;;
70545;SDS011;58098;51.680;5.134;2023-06-14T09:01:32;9.63;;;3.22;;
70545;SDS011;58098;51.680;5.134;2023-06-14T09:03:59;8.65;;;3.25;;
70545;SDS011;58098;51.680;5.134;2023-06-14T09:06:24;8.38;;;3.55;;
70545;SDS011;58098;51.680;5.134;2023-06-14T09:08:50;11.50;;;3.03;;
70545;SDS011;58098;51.680;5.134;2023-06-14T09:11:18;8.93;;;3.10;;
70545;SDS011;58098;51.680;5.134;2023-06-14T09:13:45;4.97;;;3.22;;
70545;SDS011;58098;51.680;5.134;2023-06-14T09:16:10;6.20;;;2.88;;
70545;SDS011;58098;51.680;5.134;2023-06-14T09:18:37;8.43;;;3.10;;
70545;SDS011;58098;51.680;5.134;2023-06-14T09:21:07;6.87;;;3.17;;
70545;SDS011;58098;51.680;5.134;2023-06-14T09:23:33;5.75;;;3.00;;
70545;SDS011;58098;51.680;5.134;2023-06-14T09:26:05;7.93;;;3.17;;
70545;SDS011;58098;51.680;5.134;2023-06-14T09:28:44;3.65;;;2.65;;
70545;SDS011;58098;51.680;5.134;2023-06-14T09:31:14;4.93;;;2.70;;
70545;SDS011;58098;51.680;5.134;2023-06-14T09:33:42;6.60;;;2.80;;
70545;SDS011;58098;51.680;5.134;2023-06-14T09:36:13;4.45;;;2.75;;
70545;SDS011;58098;51.680;5.134;2023-06-14T09:38:41;5.25;;;2.70;;
70545;SDS011;58098;51.680;5.134;2023-06-14T09:41:07;7.20;;;3.00;;
70545;SDS011;58098;51.680;5.134;2023-06-14T09:43:32;5.13;;;3.00;;
70545;SDS011;58098;51.680;5.134;2023-06-14T09:45:59;3.70;;;2.80;;
70545;SDS011;58098;51.680;5.134;2023-06-14T09:48:26;4.90;;;2.40;;
70545;SDS011;58098;51.680;5.134;2023-06-14T09:50:51;3.63;;;2.90;;
70545;SDS011;58098;51.680;5.134;2023-06-14T09:53:17;5.88;;;2.58;;
70545;SDS011;58098;51.680;5.134;2023-06-14T09:55:47;3.50;;;2.40;;
70545;SDS011;58098;51.680;5.134;2023-06-14T09:58:14;5.90;;;2.63;;
70545;SDS011;58098;51.680;5.134;2023-06-14T10:00:42;5.78;;;2.05;;
70545;SDS011;58098;51.680;5.134;2023-06-14T10:05:45;3.95;;;2.20;;
70545;SDS011;58098;51.680;5.134;2023-06-14T10:08:17;4.13;;;2.25;;
70545;SDS011;58098;51.680;5.134;2023-06-14T10:10:45;2.63;;;2.10;;
70545;SDS011;58098;51.680;5.134;2023-06-14T10:13:11;2.83;;;2.30;;
70545;SDS011;58098;51.680;5.134;2023-06-14T10:18:24;2.70;;;2.13;;
70545;SDS011;58098;51.680;5.134;2023-06-14T10:21:55;4.13;;;2.00;;
70545;SDS011;58098;51.680;5.134;2023-06-14T10:24:12;2.75;;;2.08;;
70545;SDS011;58098;51.680;5.134;2023-06-14T10:26:50;7.93;;;1.98;;
70545;SDS011;58098;51.680;5.134;2023-06-14T10:29:16;3.73;;;1.90;;
70545;SDS011;58098;51.680;5.134;2023-06-14T10:31:57;2.50;;;2.00;;
70545;SDS011;58098;51.680;5.134;2023-06-14T10:34:24;4.00;;;2.03;;
70545;SDS011;58098;51.680;5.134;2023-06-14T10:37:02;6.75;;;1.92;;
70545;SDS011;58098;51.680;5.134;2023-06-14T10:39:30;2.22;;;2.00;;
70545;SDS011;58098;51.680;5.134;2023-06-14T10:41:56;3.20;;;1.80;;
70545;SDS011;58098;51.680;5.134;2023-06-14T10:46:48;3.50;;;2.10;;
70545;SDS011;58098;51.680;5.134;2023-06-14T10:49:18;5.33;;;2.20;;
70545;SDS011;58098;51.680;5.134;2023-06-14T10:51:44;4.82;;;2.17;;
70545;SDS011;58098;51.680;5.134;2023-06-14T10:54:13;6.00;;;2.50;;
70545;SDS011;58098;51.680;5.134;2023-06-14T10:57:00;5.72;;;2.45;;
70545;SDS011;58098;51.680;5.134;2023-06-14T10:59:25;3.63;;;2.37;;
70545;SDS011;58098;51.680;5.134;2023-06-14T11:04:54;3.20;;;2.10;;
70545;SDS011;58098;51.680;5.134;2023-06-14T11:07:35;4.78;;;2.38;;
70545;SDS011;58098;51.680;5.134;2023-06-14T11:10:16;7.85;;;2.83;;
70545;SDS011;58098;51.680;5.134;2023-06-14T11:13:04;3.75;;;2.20;;
70545;SDS011;58098;51.680;5.134;2023-06-14T11:15:30;4.10;;;2.58;;
70545;SDS011;58098;51.680;5.134;2023-06-14T11:17:57;7.97;;;2.97;;
70545;SDS011;58098;51.680;5.134;2023-06-14T11:20:26;5.57;;;2.53;;
70545;SDS011;58098;51.680;5.134;2023-06-14T11:22:52;4.38;;;2.30;;
70545;SDS011;58098;51.680;5.134;2023-06-14T11:25:19;4.32;;;2.58;;
70545;SDS011;58098;51.680;5.134;2023-06-14T11:27:44;5.13;;;2.40;;
70545;SDS011;58098;51.680;5.134;2023-06-14T11:30:10;6.15;;;2.40;;
70545;SDS011;58098;51.680;5.134;2023-06-14T11:32:39;4.82;;;2.22;;
70545;SDS011;58098;51.680;5.134;2023-06-14T11:35:06;5.80;;;2.27;;
70545;SDS011;58098;51.680;5.134;2023-06-14T11:37:31;2.67;;;1.92;;
70545;SDS011;58098;51.680;5.134;2023-06-14T11:40:00;4.35;;;1.90;;
70545;SDS011;58098;51.680;5.134;2023-06-14T11:42:28;3.63;;;2.20;;
70545;SDS011;58098;51.680;5.134;2023-06-14T11:44:54;7.20;;;2.60;;
70545;SDS011;58098;51.680;5.134;2023-06-14T11:47:20;5.10;;;2.45;;
70545;SDS011;58098;51.680;5.134;2023-06-14T11:49:45;6.97;;;2.17;;
70545;SDS011;58098;51.680;5.134;2023-06-14T11:52:11;6.20;;;2.05;;
70545;SDS011;58098;51.680;5.134;2023-06-14T11:54:37;5.13;;;2.58;;
70545;SDS011;58098;51.680;5.134;2023-06-14T11:57:05;3.13;;;2.20;;
70545;SDS011;58098;51.680;5.134;2023-06-14T11:59:32;3.35;;;2.15;;
70545;SDS011;58098;51.680;5.134;2023-06-14T12:01:57;5.60;;;2.37;;
70545;SDS011;58098;51.680;5.134;2023-06-14T12:04:23;2.42;;;2.08;;
70545;SDS011;58098;51.680;5.134;2023-06-14T12:06:50;4.17;;;2.10;;
70545;SDS011;58098;51.680;5.134;2023-06-14T12:09:18;5.15;;;2.35;;
70545;SDS011;58098;51.680;5.134;2023-06-14T12:11:44;6.07;;;2.50;;
70545;SDS011;58098;51.680;5.134;2023-06-14T12:14:09;6.70;;;1.73;;
70545;SDS011;58098;51.680;5.134;2023-06-14T12:16:37;4.23;;;2.00;;
70545;SDS011;58098;51.680;5.134;2023-06-14T12:19:08;3.90;;;2.17;;
70545;SDS011;58098;51.680;5.134;2023-06-14T12:21:38;2.90;;;2.00;;
70545;SDS011;58098;51.680;5.134;2023-06-14T12:24:05;4.65;;;2.05;;
70545;SDS011;58098;51.680;5.134;2023-06-14T12:26:32;3.03;;;2.00;;
70545;SDS011;58098;51.680;5.134;2023-06-14T12:28:57;2.50;;;2.10;;
70545;SDS011;58098;51.680;5.134;2023-06-14T12:31:23;3.38;;;2.05;;
70545;SDS011;58098;51.680;5.134;2023-06-14T12:33:49;3.77;;;2.17;;
70545;SDS011;58098;51.680;5.134;2023-06-14T12:36:15;3.38;;;2.10;;
70545;SDS011;58098;51.680;5.134;2023-06-14T12:38:41;2.88;;;1.90;;
70545;SDS011;58098;51.680;5.134;2023-06-14T12:41:06;3.80;;;2.40;;
70545;SDS011;58098;51.680;5.134;2023-06-14T12:43:32;9.18;;;2.33;;
70545;SDS011;58098;51.680;5.134;2023-06-14T12:45:58;4.78;;;2.60;;
70545;SDS011;58098;51.680;5.134;2023-06-14T12:48:24;5.65;;;2.38;;
70545;SDS011;58098;51.680;5.134;2023-06-14T12:50:52;8.40;;;2.20;;
70545;SDS011;58098;51.680;5.134;2023-06-14T12:53:17;3.33;;;2.30;;
70545;SDS011;58098;51.680;5.134;2023-06-14T12:55:42;8.60;;;2.13;;
70545;SDS011;58098;51.680;5.134;2023-06-14T12:58:08;3.27;;;2.30;;
70545;SDS011;58098;51.680;5.134;2023-06-14T13:00:33;5.37;;;2.23;;
70545;SDS011;58098;51.680;5.134;2023-06-14T13:02:59;4.17;;;2.50;;
70545;SDS011;58098;51.680;5.134;2023-06-14T13:05:24;3.00;;;2.38;;
70545;SDS011;58098;51.680;5.134;2023-06-14T13:07:50;4.20;;;2.10;;
70545;SDS011;58098;51.680;5.134;2023-06-14T13:10:15;3.30;;;2.40;;
70545;SDS011;58098;51.680;5.134;2023-06-14T13:12:41;7.15;;;2.10;;
70545;SDS011;58098;51.680;5.134;2023-06-14T13:15:06;3.33;;;2.40;;
70545;SDS011;58098;51.680;5.134;2023-06-14T13:17:33;4.45;;;1.98;;
70545;SDS011;58098;51.680;5.134;2023-06-14T13:20:03;5.60;;;2.45;;
70545;SDS011;58098;51.680;5.134;2023-06-14T13:22:30;2.20;;;2.00;;
70545;SDS011;58098;51.680;5.134;2023-06-14T13:24:55;3.85;;;2.28;;
70545;SDS011;58098;51.680;5.134;2023-06-14T13:27:20;4.27;;;2.10;;
70545;SDS011;58098;51.680;5.134;2023-06-14T13:29:46;11.77;;;2.67;;
70545;SDS011;58098;51.680;5.134;2023-06-14T13:32:11;7.23;;;2.20;;
70545;SDS011;58098;51.680;5.134;2023-06-14T13:34:36;3.97;;;2.50;;
70545;SDS011;58098;51.680;5.134;2023-06-14T13:37:02;4.87;;;2.40;;
70545;SDS011;58098;51.680;5.134;2023-06-14T13:39:27;4.45;;;2.55;;
70545;SDS011;58098;51.680;5.134;2023-06-14T13:41:52;5.27;;;2.40;;
70545;SDS011;58098;51.680;5.134;2023-06-14T13:44:18;3.40;;;2.10;;
70545;SDS011;58098;51.680;5.134;2023-06-14T13:46:46;3.70;;;2.22;;
70545;SDS011;58098;51.680;5.134;2023-06-14T13:49:11;6.73;;;2.37;;
70545;SDS011;58098;51.680;5.134;2023-06-14T13:51:37;9.10;;;2.30;;
70545;SDS011;58098;51.680;5.134;2023-06-14T13:54:03;4.83;;;2.20;;
70545;SDS011;58098;51.680;5.134;2023-06-14T13:56:28;4.73;;;2.20;;
70545;SDS011;58098;51.680;5.134;2023-06-14T13:58:55;5.07;;;2.30;;
70545;SDS011;58098;51.680;5.134;2023-06-14T14:01:20;5.72;;;2.30;;
70545;SDS011;58098;51.680;5.134;2023-06-14T14:03:46;3.60;;;2.50;;
70545;SDS011;58098;51.680;5.134;2023-06-14T14:06:14;3.53;;;2.55;;
70545;SDS011;58098;51.680;5.134;2023-06-14T14:08:41;7.10;;;2.13;;
70545;SDS011;58098;51.680;5.134;2023-06-14T14:11:07;7.30;;;2.15;;
70545;SDS011;58098;51.680;5.134;2023-06-14T14:13:33;6.97;;;2.20;;
70545;SDS011;58098;51.680;5.134;2023-06-14T14:16:01;5.30;;;2.13;;
70545;SDS011;58098;51.680;5.134;2023-06-14T14:18:26;3.33;;;2.23;;
70545;SDS011;58098;51.680;5.134;2023-06-14T14:20:51;8.23;;;2.10;;
70545;SDS011;58098;51.680;5.134;2023-06-14T14:23:17;4.13;;;2.30;;
70545;SDS011;58098;51.680;5.134;2023-06-14T14:25:42;3.97;;;2.35;;
70545;SDS011;58098;51.680;5.134;2023-06-14T14:28:08;5.57;;;2.33;;
70545;SDS011;58098;51.680;5.134;2023-06-14T14:30:33;3.53;;;2.00;;
70545;SDS011;58098;51.680;5.134;2023-06-14T14:32:59;4.45;;;2.45;;
70545;SDS011;58098;51.680;5.134;2023-06-14T14:35:24;4.23;;;3.10;;
70545;SDS011;58098;51.680;5.134;2023-06-14T14:37:55;3.17;;;2.30;;
70545;SDS011;58098;51.680;5.134;2023-06-14T14:40:20;4.60;;;2.10;;
70545;SDS011;58098;51.680;5.134;2023-06-14T14:42:45;4.90;;;2.00;;
70545;SDS011;58098;51.680;5.134;2023-06-14T14:45:11;4.23;;;2.00;;
70545;SDS011;58098;51.680;5.134;2023-06-14T14:47:36;4.20;;;1.83;;
70545;SDS011;58098;51.680;5.134;2023-06-14T14:50:01;5.00;;;1.90;;
70545;SDS011;58098;51.680;5.134;2023-06-14T14:52:27;6.33;;;2.00;;
70545;SDS011;58098;51.680;5.134;2023-06-14T14:54:52;3.60;;;2.00;;